createdAt,value
2022-09-18T00:00:54.771Z,0.00
2022-09-18T00:01:54.811Z,0.00
2022-09-18T00:02:54.820Z,0.00
2022-09-18T00:03:54.744Z,0.00
2022-09-18T00:04:54.728Z,0.00
2022-09-18T00:05:54.735Z,0.00
2022-09-18T00:06:54.724Z,0.00
2022-09-18T00:07:54.712Z,0.00
2022-09-18T00:08:54.700Z,0.00
2022-09-18T00:09:54.699Z,0.00
2022-09-18T00:10:54.686Z,0.00
2022-09-18T00:11:54.811Z,0.00
2022-09-18T00:12:54.676Z,0.00
2022-09-18T00:13:54.663Z,0.00
2022-09-18T00:14:54.665Z,0.00
2022-09-18T00:15:54.711Z,0.00
2022-09-18T00:16:54.649Z,0.00
2022-09-18T00:17:54.654Z,0.00
2022-09-18T00:18:54.635Z,0.00
2022-09-18T00:19:54.631Z,0.00
2022-09-18T00:20:54.621Z,0.00
2022-09-18T00:21:54.636Z,0.00
2022-09-18T00:22:54.601Z,0.00
2022-09-18T00:23:54.597Z,0.00
2022-09-18T00:24:54.589Z,0.00
2022-09-18T00:25:54.585Z,0.00
2022-09-18T00:26:54.589Z,0.00
2022-09-18T00:27:54.664Z,0.00
2022-09-18T00:28:54.573Z,0.00
2022-09-18T00:29:54.557Z,0.00
2022-09-18T00:30:54.592Z,0.00
2022-09-18T00:31:54.589Z,0.00
2022-09-18T00:32:54.533Z,0.00
2022-09-18T00:33:54.531Z,0.00
2022-09-18T00:34:54.524Z,0.00
2022-09-18T00:35:54.520Z,0.00
2022-09-18T00:36:54.508Z,0.00
2022-09-18T00:37:54.499Z,0.00
2022-09-18T00:38:54.508Z,0.00
2022-09-18T00:39:54.541Z,0.00
2022-09-18T00:40:54.485Z,0.00
2022-09-18T00:41:54.476Z,0.00
2022-09-18T00:42:54.476Z,0.00
2022-09-18T00:43:54.566Z,0.00
2022-09-18T00:44:54.497Z,0.00
2022-09-18T00:45:54.457Z,0.00
2022-09-18T00:46:54.455Z,0.00
2022-09-18T00:47:54.444Z,0.00
2022-09-18T00:48:54.436Z,0.00
2022-09-18T00:49:54.425Z,0.00
2022-09-18T00:50:54.423Z,0.00
2022-09-18T00:51:54.400Z,0.00
2022-09-18T00:52:54.401Z,0.00
2022-09-18T00:53:54.391Z,0.00
2022-09-18T00:54:54.387Z,0.00
2022-09-18T00:55:54.392Z,0.00
2022-09-18T00:56:54.424Z,0.00
2022-09-18T00:57:54.369Z,0.00
2022-09-18T00:58:54.348Z,0.00
2022-09-18T00:59:54.443Z,0.00
2022-09-18T01:00:54.462Z,0.00
2022-09-18T01:01:54.376Z,0.00
2022-09-18T01:02:54.332Z,0.00
2022-09-18T01:03:54.327Z,0.00
2022-09-18T01:04:54.322Z,0.00
2022-09-18T01:05:54.319Z,0.00
2022-09-18T01:06:54.312Z,0.00
2022-09-18T01:07:54.291Z,0.00
2022-09-18T01:08:54.295Z,0.00
2022-09-18T01:09:54.287Z,0.00
2022-09-18T01:10:54.268Z,0.00
2022-09-18T01:11:55.299Z,0.00
2022-09-18T01:12:54.263Z,0.00
2022-09-18T01:13:54.253Z,0.00
2022-09-18T01:14:54.252Z,0.00
2022-09-18T01:15:54.385Z,0.00
2022-09-18T01:16:54.243Z,0.00
2022-09-18T01:17:54.420Z,0.00
2022-09-18T01:18:54.225Z,0.00
2022-09-18T01:19:54.220Z,0.00
2022-09-18T01:20:54.212Z,0.00
2022-09-18T01:21:54.203Z,0.00
2022-09-18T01:22:54.233Z,0.00
2022-09-18T01:23:54.193Z,0.00
2022-09-18T01:24:54.180Z,0.00
2022-09-18T01:25:54.168Z,0.00
2022-09-18T01:26:54.168Z,0.00
2022-09-18T01:27:54.163Z,0.00
2022-09-18T01:28:54.167Z,0.00
2022-09-18T01:29:54.149Z,0.00
2022-09-18T01:30:54.167Z,0.00
2022-09-18T01:31:54.229Z,0.00
2022-09-18T01:32:54.111Z,0.00
2022-09-18T01:33:55.143Z,0.00
2022-09-18T01:34:54.117Z,0.00
2022-09-18T01:35:54.099Z,0.00
2022-09-18T01:36:54.096Z,0.00
2022-09-18T01:37:54.096Z,0.00
2022-09-18T01:38:54.095Z,0.00
2022-09-18T01:39:54.224Z,0.00
2022-09-18T01:40:54.072Z,0.00
2022-09-18T01:41:54.064Z,0.00
2022-09-18T01:42:54.060Z,0.00
2022-09-18T01:43:54.051Z,0.00
2022-09-18T01:44:54.064Z,0.00
2022-09-18T01:45:54.044Z,0.00
2022-09-18T01:46:54.081Z,0.00
2022-09-18T01:47:54.132Z,0.00
2022-09-18T01:48:54.027Z,0.00
2022-09-18T01:49:54.015Z,0.00
2022-09-18T01:50:54.019Z,0.00
2022-09-18T01:51:54.019Z,0.00
2022-09-18T01:52:54.004Z,0.00
2022-09-18T01:53:53.995Z,0.00
2022-09-18T01:54:53.978Z,0.00
2022-09-18T01:55:54.007Z,0.00
2022-09-18T01:56:54.000Z,0.00
2022-09-18T01:57:54.025Z,0.00
2022-09-18T01:58:53.962Z,0.00
2022-09-18T01:59:53.945Z,0.00
2022-09-18T02:00:53.946Z,0.00
2022-09-18T02:01:54.151Z,0.00
2022-09-18T02:02:53.982Z,0.00
2022-09-18T02:03:54.011Z,0.00
2022-09-18T02:04:53.918Z,0.00
2022-09-18T02:05:53.913Z,0.00
2022-09-18T02:06:53.905Z,0.00
2022-09-18T02:07:53.916Z,0.00
2022-09-18T02:08:53.888Z,0.00
2022-09-18T02:09:53.891Z,0.00
2022-09-18T02:10:53.877Z,0.00
2022-09-18T02:11:53.887Z,0.00
2022-09-18T02:12:53.873Z,0.00
2022-09-18T02:13:53.888Z,0.00
2022-09-18T02:14:53.851Z,0.00
2022-09-18T02:15:53.875Z,0.00
2022-09-18T02:16:53.925Z,0.00
2022-09-18T02:17:53.829Z,0.00
2022-09-18T02:18:53.832Z,0.00
2022-09-18T02:19:54.908Z,0.00
2022-09-18T02:20:53.829Z,0.00
2022-09-18T02:21:53.806Z,0.00
2022-09-18T02:22:53.802Z,0.00
2022-09-18T02:23:53.790Z,0.00
2022-09-18T02:24:53.800Z,0.00
2022-09-18T02:25:53.767Z,0.00
2022-09-18T02:26:54.773Z,0.00
2022-09-18T02:27:53.768Z,0.00
2022-09-18T02:28:53.757Z,0.00
2022-09-18T02:29:53.761Z,0.00
2022-09-18T02:30:53.781Z,0.00
2022-09-18T02:31:53.855Z,0.00
2022-09-18T02:32:53.732Z,0.00
2022-09-18T02:33:53.772Z,0.00
2022-09-18T02:34:53.722Z,0.00
2022-09-18T02:35:53.739Z,0.00
2022-09-18T02:36:53.705Z,0.00
2022-09-18T02:37:53.697Z,0.00
2022-09-18T02:38:53.689Z,0.00
2022-09-18T02:39:53.768Z,0.00
2022-09-18T02:40:53.693Z,0.00
2022-09-18T02:41:53.681Z,0.00
2022-09-18T02:42:53.664Z,0.00
2022-09-18T02:43:53.654Z,0.00
2022-09-18T02:44:53.637Z,0.00
2022-09-18T02:45:53.652Z,0.00
2022-09-18T02:46:53.731Z,0.00
2022-09-18T02:47:53.641Z,0.00
2022-09-18T02:48:53.625Z,0.00
2022-09-18T02:49:53.616Z,0.00
2022-09-18T02:50:53.605Z,0.00
2022-09-18T02:51:53.702Z,0.00
2022-09-18T02:52:53.621Z,0.00
2022-09-18T02:53:53.609Z,0.00
2022-09-18T02:54:53.646Z,0.00
2022-09-18T02:55:53.582Z,0.00
2022-09-18T02:56:53.581Z,0.00
2022-09-18T02:57:53.557Z,0.00
2022-09-18T02:58:53.574Z,0.00
2022-09-18T02:59:53.549Z,0.00
2022-09-18T03:00:53.533Z,0.00
2022-09-18T03:01:53.791Z,0.00
2022-09-18T03:02:53.578Z,0.00
2022-09-18T03:03:53.518Z,0.00
2022-09-18T03:04:53.531Z,0.00
2022-09-18T03:05:53.509Z,0.00
2022-09-18T03:06:53.511Z,0.00
2022-09-18T03:07:53.588Z,0.00
2022-09-18T03:08:53.486Z,0.00
2022-09-18T03:09:53.484Z,0.00
2022-09-18T03:10:53.473Z,0.00
2022-09-18T03:11:53.649Z,0.00
2022-09-18T03:12:53.458Z,0.00
2022-09-18T03:13:53.469Z,0.00
2022-09-18T03:14:53.474Z,0.00
2022-09-18T03:15:53.464Z,0.00
2022-09-18T03:16:53.432Z,0.00
2022-09-18T03:17:53.429Z,0.00
2022-09-18T03:18:53.460Z,0.00
2022-09-18T03:19:53.417Z,0.00
2022-09-18T03:20:53.410Z,0.00
2022-09-18T03:21:53.401Z,0.00
2022-09-18T03:22:53.401Z,0.00
2022-09-18T03:23:53.486Z,0.00
2022-09-18T03:24:53.376Z,0.00
2022-09-18T03:25:53.389Z,0.00
2022-09-18T03:26:53.363Z,0.00
2022-09-18T03:27:53.357Z,0.00
2022-09-18T03:28:53.340Z,0.00
2022-09-18T03:29:53.345Z,0.00
2022-09-18T03:30:53.416Z,0.00
2022-09-18T03:31:53.390Z,0.00
2022-09-18T03:32:53.324Z,0.00
2022-09-18T03:33:53.320Z,0.00
2022-09-18T03:34:53.309Z,0.00
2022-09-18T03:35:53.304Z,0.00
2022-09-18T03:36:53.312Z,0.00
2022-09-18T03:37:53.282Z,0.00
2022-09-18T03:38:53.286Z,0.00
2022-09-18T03:39:53.418Z,0.00
2022-09-18T03:40:53.288Z,0.00
2022-09-18T03:41:53.280Z,0.00
2022-09-18T03:42:53.252Z,0.00
2022-09-18T03:43:53.247Z,0.00
2022-09-18T03:44:53.245Z,0.00
2022-09-18T03:45:53.237Z,0.00
2022-09-18T03:46:53.281Z,0.00
2022-09-18T03:47:53.236Z,0.00
2022-09-18T03:48:53.216Z,0.00
2022-09-18T03:49:53.196Z,0.00
2022-09-18T03:50:53.200Z,0.00
2022-09-18T03:51:53.201Z,0.00
2022-09-18T03:52:53.195Z,0.00
2022-09-18T03:53:53.178Z,0.00
2022-09-18T03:54:53.162Z,0.00
2022-09-18T03:55:54.259Z,0.00
2022-09-18T03:56:53.146Z,0.00
2022-09-18T03:57:53.151Z,0.00
2022-09-18T03:58:53.161Z,0.00
2022-09-18T03:59:53.144Z,0.00
2022-09-18T04:00:53.147Z,0.00
2022-09-18T04:01:53.147Z,0.00
2022-09-18T04:02:53.152Z,0.00
2022-09-18T04:03:53.135Z,0.00
2022-09-18T04:04:53.107Z,0.00
2022-09-18T04:05:53.094Z,0.00
2022-09-18T04:06:53.118Z,0.00
2022-09-18T04:07:53.082Z,0.00
2022-09-18T04:08:53.086Z,0.00
2022-09-18T04:09:53.090Z,0.00
2022-09-18T04:10:53.063Z,0.00
2022-09-18T04:11:53.149Z,0.00
2022-09-18T04:12:53.050Z,0.00
2022-09-18T04:13:53.046Z,0.00
2022-09-18T04:14:53.050Z,0.00
2022-09-18T04:15:53.052Z,0.00
2022-09-18T04:16:53.018Z,0.00
2022-09-18T04:17:53.006Z,0.00
2022-09-18T04:18:53.010Z,0.00
2022-09-18T04:19:53.887Z,0.00
2022-09-18T04:20:54.002Z,0.00
2022-09-18T04:21:52.987Z,0.00
2022-09-18T04:22:52.983Z,0.00
2022-09-18T04:23:52.970Z,0.00
2022-09-18T04:24:52.967Z,0.00
2022-09-18T04:25:52.971Z,0.00
2022-09-18T04:26:52.946Z,0.00
2022-09-18T04:27:53.028Z,0.00
2022-09-18T04:28:52.942Z,0.00
2022-09-18T04:29:52.930Z,0.00
2022-09-18T04:30:53.011Z,0.00
2022-09-18T04:31:52.955Z,0.00
2022-09-18T04:32:52.922Z,0.00
2022-09-18T04:33:52.892Z,0.00
2022-09-18T04:34:52.898Z,0.00
2022-09-18T04:35:52.889Z,0.00
2022-09-18T04:36:52.895Z,0.00
2022-09-18T04:37:52.871Z,0.00
2022-09-18T04:38:52.860Z,0.00
2022-09-18T04:39:52.898Z,0.00
2022-09-18T04:40:52.847Z,0.00
2022-09-18T04:41:52.853Z,0.00
2022-09-18T04:42:52.835Z,0.00
2022-09-18T04:43:52.920Z,0.00
2022-09-18T04:44:52.821Z,0.00
2022-09-18T04:45:52.809Z,0.00
2022-09-18T04:46:52.874Z,0.00
2022-09-18T04:47:52.820Z,0.00
2022-09-18T04:48:52.799Z,0.00
2022-09-18T04:49:52.790Z,0.00
2022-09-18T04:50:52.775Z,0.00
2022-09-18T04:51:52.770Z,0.00
2022-09-18T04:52:52.778Z,0.00
2022-09-18T04:53:52.766Z,0.00
2022-09-18T04:54:52.757Z,0.00
2022-09-18T04:55:52.772Z,0.00
2022-09-18T04:56:52.734Z,0.00
2022-09-18T04:57:54.658Z,0.00
2022-09-18T04:58:53.726Z,0.00
2022-09-18T04:59:52.821Z,0.00
2022-09-18T05:00:52.780Z,0.00
2022-09-18T05:01:53.800Z,0.00
2022-09-18T05:02:52.705Z,0.00
2022-09-18T05:03:52.712Z,0.00
2022-09-18T05:04:52.686Z,5.62
2022-09-18T05:05:52.685Z,5.62
2022-09-18T05:06:52.721Z,5.62
2022-09-18T05:07:52.670Z,5.62
2022-09-18T05:08:52.835Z,5.62
2022-09-18T05:09:52.654Z,5.62
2022-09-18T05:10:52.649Z,5.62
2022-09-18T05:11:52.635Z,5.62
2022-09-18T05:12:52.635Z,5.62
2022-09-18T05:13:52.650Z,11.25
2022-09-18T05:14:52.629Z,11.25
2022-09-18T05:15:52.779Z,11.25
2022-09-18T05:16:52.610Z,11.25
2022-09-18T05:17:52.734Z,11.25
2022-09-18T05:18:52.646Z,11.25
2022-09-18T05:19:52.602Z,11.25
2022-09-18T05:20:52.579Z,11.25
2022-09-18T05:21:52.574Z,11.25
2022-09-18T05:22:52.571Z,11.25
2022-09-18T05:23:52.558Z,11.25
2022-09-18T05:24:52.578Z,16.88
2022-09-18T05:25:52.557Z,16.88
2022-09-18T05:26:52.534Z,16.88
2022-09-18T05:27:52.542Z,16.88
2022-09-18T05:28:52.527Z,16.88
2022-09-18T05:29:52.522Z,16.88
2022-09-18T05:30:52.533Z,16.88
2022-09-18T05:31:52.711Z,16.88
2022-09-18T05:32:55.556Z,16.88
2022-09-18T05:33:54.494Z,16.88
2022-09-18T05:34:52.488Z,16.88
2022-09-18T05:35:52.506Z,16.88
2022-09-18T05:36:52.486Z,16.88
2022-09-18T05:37:52.466Z,16.88
2022-09-18T05:38:52.462Z,22.50
2022-09-18T05:39:52.497Z,22.50
2022-09-18T05:40:52.457Z,22.50
2022-09-18T05:41:52.470Z,22.50
2022-09-18T05:42:52.446Z,22.50
2022-09-18T05:43:52.501Z,22.50
2022-09-18T05:44:52.473Z,22.50
2022-09-18T05:45:52.461Z,22.50
2022-09-18T05:46:52.457Z,22.50
2022-09-18T05:47:52.491Z,22.50
2022-09-18T05:48:52.402Z,22.50
2022-09-18T05:49:52.381Z,22.50
2022-09-18T05:50:52.392Z,22.50
2022-09-18T05:51:52.377Z,22.50
2022-09-18T05:52:52.361Z,22.50
2022-09-18T05:53:52.354Z,22.50
2022-09-18T05:54:53.349Z,22.50
2022-09-18T05:55:52.350Z,22.50
2022-09-18T05:56:52.331Z,22.50
2022-09-18T05:57:52.337Z,22.50
2022-09-18T05:58:52.321Z,22.50
2022-09-18T05:59:52.321Z,22.50
2022-09-18T06:00:52.339Z,22.50
2022-09-18T06:01:52.324Z,28.12
2022-09-18T06:02:52.330Z,28.12
2022-09-18T06:03:52.398Z,28.12
2022-09-18T06:04:52.289Z,22.50
2022-09-18T06:05:52.285Z,22.50
2022-09-18T06:06:52.273Z,22.50
2022-09-18T06:07:55.382Z,16.88
2022-09-18T06:08:53.279Z,16.88
2022-09-18T06:09:52.256Z,16.88
2022-09-18T06:10:52.247Z,11.25
2022-09-18T06:11:52.249Z,11.25
2022-09-18T06:12:52.233Z,11.25
2022-09-18T06:13:52.242Z,16.88
2022-09-18T06:14:52.226Z,16.88
2022-09-18T06:15:52.440Z,16.88
2022-09-18T06:16:52.204Z,16.88
2022-09-18T06:17:52.202Z,16.88
2022-09-18T06:18:52.197Z,16.88
2022-09-18T06:19:52.271Z,16.88
2022-09-18T06:20:52.178Z,16.88
2022-09-18T06:21:52.170Z,22.50
2022-09-18T06:22:52.150Z,28.12
2022-09-18T06:23:52.168Z,33.75
2022-09-18T06:24:52.156Z,33.75
2022-09-18T06:25:52.172Z,33.75
2022-09-18T06:26:52.136Z,33.75
2022-09-18T06:27:52.129Z,33.75
2022-09-18T06:28:52.125Z,33.75
2022-09-18T06:29:52.118Z,39.38
2022-09-18T06:30:52.133Z,45.00
2022-09-18T06:31:52.121Z,45.00
2022-09-18T06:32:52.097Z,50.62
2022-09-18T06:33:52.097Z,50.62
2022-09-18T06:34:52.089Z,50.62
2022-09-18T06:35:52.169Z,50.62
2022-09-18T06:36:52.085Z,50.62
2022-09-18T06:37:52.065Z,50.62
2022-09-18T06:38:52.058Z,50.62
2022-09-18T06:39:52.121Z,50.62
2022-09-18T06:40:52.049Z,50.62
2022-09-18T06:41:52.056Z,45.00
2022-09-18T06:42:52.034Z,39.38
2022-09-18T06:43:52.047Z,39.38
2022-09-18T06:44:52.020Z,39.38
2022-09-18T06:45:52.008Z,39.38
2022-09-18T06:46:52.107Z,39.38
2022-09-18T06:47:52.001Z,39.38
2022-09-18T06:48:51.990Z,45.00
2022-09-18T06:49:51.990Z,50.62
2022-09-18T06:50:51.980Z,50.62
2022-09-18T06:51:52.098Z,50.62
2022-09-18T06:52:51.968Z,56.25
2022-09-18T06:53:51.962Z,56.25
2022-09-18T06:54:51.960Z,50.62
2022-09-18T06:55:51.956Z,50.62
2022-09-18T06:56:51.940Z,50.62
2022-09-18T06:57:51.949Z,50.62
2022-09-18T06:58:51.929Z,50.62
2022-09-18T06:59:51.920Z,50.62
2022-09-18T07:00:51.995Z,50.62
2022-09-18T07:01:51.953Z,45.00
2022-09-18T07:02:51.905Z,45.00
2022-09-18T07:03:51.900Z,50.62
2022-09-18T07:04:51.901Z,50.62
2022-09-18T07:05:51.887Z,50.62
2022-09-18T07:06:51.872Z,56.25
2022-09-18T07:07:51.979Z,61.88
2022-09-18T07:08:51.864Z,61.88
2022-09-18T07:09:51.869Z,61.88
2022-09-18T07:10:51.852Z,67.50
2022-09-18T07:11:51.843Z,67.50
2022-09-18T07:12:51.848Z,73.12
2022-09-18T07:13:51.833Z,73.12
2022-09-18T07:14:51.815Z,73.12
2022-09-18T07:15:51.854Z,73.12
2022-09-18T07:16:51.812Z,73.12
2022-09-18T07:17:51.812Z,78.75
2022-09-18T07:18:51.791Z,84.38
2022-09-18T07:19:51.797Z,84.38
2022-09-18T07:20:51.784Z,84.38
2022-09-18T07:21:51.780Z,84.38
2022-09-18T07:22:51.771Z,90.00
2022-09-18T07:23:51.853Z,90.00
2022-09-18T07:24:51.752Z,90.00
2022-09-18T07:25:51.743Z,95.62
2022-09-18T07:26:51.744Z,95.62
2022-09-18T07:27:51.800Z,101.25
2022-09-18T07:28:51.732Z,106.88
2022-09-18T07:29:51.723Z,118.12
2022-09-18T07:30:51.703Z,129.38
2022-09-18T07:31:51.714Z,140.62
2022-09-18T07:32:51.712Z,157.50
2022-09-18T07:33:51.739Z,146.25
2022-09-18T07:34:51.692Z,146.25
2022-09-18T07:35:51.688Z,146.25
2022-09-18T07:36:51.671Z,151.88
2022-09-18T07:37:51.677Z,168.75
2022-09-18T07:38:51.661Z,180.00
2022-09-18T07:39:52.919Z,196.88
2022-09-18T07:40:51.639Z,202.50
2022-09-18T07:41:51.657Z,213.75
2022-09-18T07:42:51.637Z,208.12
2022-09-18T07:43:51.666Z,213.75
2022-09-18T07:44:51.619Z,213.75
2022-09-18T07:45:51.620Z,219.38
2022-09-18T07:46:51.668Z,219.38
2022-09-18T07:47:51.608Z,230.62
2022-09-18T07:48:51.705Z,230.62
2022-09-18T07:49:51.592Z,225.00
2022-09-18T07:50:51.592Z,225.00
2022-09-18T07:51:51.580Z,241.88
2022-09-18T07:52:51.580Z,247.50
2022-09-18T07:53:51.559Z,253.12
2022-09-18T07:54:51.571Z,247.50
2022-09-18T07:55:51.655Z,236.25
2022-09-18T07:56:51.539Z,219.38
2022-09-18T07:57:51.543Z,196.88
2022-09-18T07:58:51.535Z,185.62
2022-09-18T07:59:51.531Z,185.62
2022-09-18T08:00:51.540Z,191.25
2022-09-18T08:01:51.656Z,208.12
2022-09-18T08:02:51.657Z,225.00
2022-09-18T08:03:51.617Z,236.25
2022-09-18T08:04:51.497Z,236.25
2022-09-18T08:05:51.559Z,230.62
2022-09-18T08:06:51.486Z,225.00
2022-09-18T08:07:51.515Z,219.38
2022-09-18T08:08:54.933Z,208.12
2022-09-18T08:09:52.469Z,191.25
2022-09-18T08:10:51.530Z,180.00
2022-09-18T08:11:51.551Z,163.12
2022-09-18T08:12:51.457Z,151.88
2022-09-18T08:13:51.453Z,146.25
2022-09-18T08:14:51.496Z,140.62
2022-09-18T08:15:51.484Z,135.00
2022-09-18T08:16:51.422Z,129.38
2022-09-18T08:17:51.415Z,118.12
2022-09-18T08:18:51.518Z,101.25
2022-09-18T08:19:51.435Z,90.00
2022-09-18T08:20:51.419Z,90.00
2022-09-18T08:21:51.389Z,84.38
2022-09-18T08:22:51.378Z,78.75
2022-09-18T08:23:51.386Z,73.12
2022-09-18T08:24:51.370Z,67.50
2022-09-18T08:25:51.367Z,61.88
2022-09-18T08:26:51.383Z,56.25
2022-09-18T08:27:51.449Z,50.62
2022-09-18T08:28:51.346Z,50.62
2022-09-18T08:29:51.347Z,45.00
2022-09-18T08:30:51.351Z,45.00
2022-09-18T08:31:51.393Z,45.00
2022-09-18T08:32:51.331Z,45.00
2022-09-18T08:33:51.403Z,45.00
2022-09-18T08:34:51.314Z,56.25
2022-09-18T08:35:51.327Z,56.25
2022-09-18T08:36:51.358Z,61.88
2022-09-18T08:37:51.291Z,56.25
2022-09-18T08:38:51.330Z,56.25
2022-09-18T08:39:51.309Z,50.62
2022-09-18T08:40:51.279Z,56.25
2022-09-18T08:41:51.282Z,61.88
2022-09-18T08:42:51.267Z,67.50
2022-09-18T08:43:51.349Z,78.75
2022-09-18T08:44:51.306Z,84.38
2022-09-18T08:45:51.283Z,90.00
2022-09-18T08:46:51.307Z,106.88
2022-09-18T08:47:51.271Z,140.62
2022-09-18T08:48:51.287Z,163.12
2022-09-18T08:49:51.210Z,191.25
2022-09-18T08:50:51.226Z,230.62
2022-09-18T08:51:51.216Z,258.75
2022-09-18T08:52:51.222Z,264.38
2022-09-18T08:53:51.200Z,258.75
2022-09-18T08:54:51.190Z,236.25
2022-09-18T08:55:51.187Z,225.00
2022-09-18T08:56:51.174Z,213.75
2022-09-18T08:57:51.174Z,196.88
2022-09-18T08:58:51.188Z,196.88
2022-09-18T08:59:51.253Z,196.88
2022-09-18T09:00:51.203Z,213.75
2022-09-18T09:01:51.187Z,230.62
2022-09-18T09:02:51.143Z,241.88
2022-09-18T09:03:51.264Z,236.25
2022-09-18T09:04:51.135Z,225.00
2022-09-18T09:05:51.123Z,213.75
2022-09-18T09:06:51.160Z,202.50
2022-09-18T09:07:51.110Z,202.50
2022-09-18T09:08:51.106Z,196.88
2022-09-18T09:09:51.094Z,191.25
2022-09-18T09:10:51.086Z,174.38
2022-09-18T09:11:51.095Z,168.75
2022-09-18T09:12:51.071Z,168.75
2022-09-18T09:13:51.078Z,157.50
2022-09-18T09:14:57.451Z,151.88
2022-09-18T09:15:53.186Z,135.00
2022-09-18T09:16:51.055Z,135.00
2022-09-18T09:17:51.039Z,146.25
2022-09-18T09:18:51.097Z,151.88
2022-09-18T09:19:51.042Z,151.88
2022-09-18T09:20:51.018Z,157.50
2022-09-18T09:21:51.017Z,163.12
2022-09-18T09:22:51.014Z,157.50
2022-09-18T09:23:51.022Z,146.25
2022-09-18T09:24:51.010Z,129.38
2022-09-18T09:25:51.033Z,135.00
2022-09-18T09:26:50.978Z,135.00
2022-09-18T09:27:51.979Z,123.75
2022-09-18T09:28:50.972Z,123.75
2022-09-18T09:29:50.986Z,129.38
2022-09-18T09:30:50.962Z,129.38
2022-09-18T09:31:51.103Z,135.00
2022-09-18T09:32:50.954Z,140.62
2022-09-18T09:33:51.057Z,135.00
2022-09-18T09:34:50.942Z,140.62
2022-09-18T09:35:50.945Z,146.25
2022-09-18T09:36:50.922Z,140.62
2022-09-18T09:37:50.914Z,129.38
2022-09-18T09:38:50.914Z,146.25
2022-09-18T09:39:50.921Z,146.25
2022-09-18T09:40:50.906Z,135.00
2022-09-18T09:41:50.886Z,146.25
2022-09-18T09:42:50.874Z,168.75
2022-09-18T09:43:50.880Z,185.62
2022-09-18T09:44:50.872Z,185.62
2022-09-18T09:45:50.875Z,163.12
2022-09-18T09:46:50.967Z,157.50
2022-09-18T09:47:50.948Z,191.25
2022-09-18T09:48:50.860Z,213.75
2022-09-18T09:49:50.842Z,208.12
2022-09-18T09:50:50.851Z,202.50
2022-09-18T09:51:50.827Z,208.12
2022-09-18T09:52:50.813Z,180.00
2022-09-18T09:53:50.827Z,168.75
2022-09-18T09:54:50.806Z,163.12
2022-09-18T09:55:50.806Z,168.75
2022-09-18T09:56:50.785Z,168.75
2022-09-18T09:57:50.783Z,163.12
2022-09-18T09:58:50.769Z,135.00
2022-09-18T09:59:50.761Z,112.50
2022-09-18T10:00:50.833Z,101.25
2022-09-18T10:01:50.816Z,95.62
2022-09-18T10:02:50.743Z,101.25
2022-09-18T10:03:50.898Z,95.62
2022-09-18T10:04:50.727Z,84.38
2022-09-18T10:05:53.748Z,84.38
2022-09-18T10:06:51.713Z,84.38
2022-09-18T10:07:50.707Z,106.88
2022-09-18T10:08:50.709Z,129.38
2022-09-18T10:09:50.698Z,135.00
2022-09-18T10:10:50.685Z,135.00
2022-09-18T10:11:54.063Z,129.38
2022-09-18T10:12:52.691Z,118.12
2022-09-18T10:13:50.673Z,112.50
2022-09-18T10:14:50.677Z,95.62
2022-09-18T10:15:50.727Z,90.00
2022-09-18T10:16:50.666Z,90.00
2022-09-18T10:17:50.646Z,106.88
2022-09-18T10:18:50.686Z,101.25
2022-09-18T10:19:50.728Z,106.88
2022-09-18T10:20:50.626Z,106.88
2022-09-18T10:21:50.625Z,106.88
2022-09-18T10:22:50.605Z,112.50
2022-09-18T10:23:50.601Z,106.88
2022-09-18T10:24:50.601Z,118.12
2022-09-18T10:25:50.581Z,135.00
2022-09-18T10:26:50.617Z,151.88
2022-09-18T10:27:50.585Z,163.12
2022-09-18T10:28:50.572Z,163.12
2022-09-18T10:29:50.593Z,140.62
2022-09-18T10:30:50.558Z,112.50
2022-09-18T10:31:50.623Z,112.50
2022-09-18T10:32:50.542Z,123.75
2022-09-18T10:33:50.569Z,146.25
2022-09-18T10:34:50.542Z,174.38
2022-09-18T10:35:50.625Z,180.00
2022-09-18T10:36:50.538Z,180.00
2022-09-18T10:37:50.517Z,185.62
2022-09-18T10:38:50.509Z,202.50
2022-09-18T10:39:50.495Z,219.38
2022-09-18T10:40:50.501Z,236.25
2022-09-18T10:41:50.491Z,236.25
2022-09-18T10:42:50.489Z,225.00
2022-09-18T10:43:50.483Z,202.50
2022-09-18T10:44:50.461Z,191.25
2022-09-18T10:45:50.457Z,196.88
2022-09-18T10:46:50.495Z,196.88
2022-09-18T10:47:50.459Z,196.88
2022-09-18T10:48:50.452Z,196.88
2022-09-18T10:49:51.437Z,185.62
2022-09-18T10:50:50.434Z,163.12
2022-09-18T10:51:50.511Z,135.00
2022-09-18T10:52:50.421Z,118.12
2022-09-18T10:53:50.406Z,106.88
2022-09-18T10:54:50.397Z,95.62
2022-09-18T10:55:53.874Z,90.00
2022-09-18T10:56:51.381Z,90.00
2022-09-18T10:57:50.374Z,95.62
2022-09-18T10:58:50.376Z,101.25
2022-09-18T10:59:50.365Z,101.25
2022-09-18T11:00:50.411Z,112.50
2022-09-18T11:01:50.366Z,123.75
2022-09-18T11:02:50.367Z,135.00
2022-09-18T11:03:50.483Z,135.00
2022-09-18T11:04:50.321Z,135.00
2022-09-18T11:05:50.319Z,140.62
2022-09-18T11:06:50.313Z,146.25
2022-09-18T11:07:51.310Z,151.88
2022-09-18T11:08:50.304Z,151.88
2022-09-18T11:09:50.277Z,163.12
2022-09-18T11:10:51.282Z,168.75
2022-09-18T11:11:50.277Z,168.75
2022-09-18T11:12:54.973Z,168.75
2022-09-18T11:13:52.257Z,163.12
2022-09-18T11:14:50.249Z,163.12
2022-09-18T11:15:50.325Z,174.38
2022-09-18T11:16:50.261Z,174.38
2022-09-18T11:17:50.226Z,174.38
2022-09-18T11:18:51.263Z,174.38
2022-09-18T11:19:50.222Z,174.38
2022-09-18T11:20:50.218Z,185.62
2022-09-18T11:21:50.224Z,196.88
2022-09-18T11:22:50.192Z,196.88
2022-09-18T11:23:50.296Z,208.12
2022-09-18T11:24:50.186Z,208.12
2022-09-18T11:25:50.173Z,208.12
2022-09-18T11:26:50.169Z,219.38
2022-09-18T11:27:50.149Z,225.00
2022-09-18T11:28:50.150Z,219.38
2022-09-18T11:29:50.161Z,202.50
2022-09-18T11:30:50.141Z,191.25
2022-09-18T11:31:50.192Z,191.25
2022-09-18T11:32:50.133Z,191.25
2022-09-18T11:33:50.110Z,191.25
2022-09-18T11:34:50.105Z,191.25
2022-09-18T11:35:50.117Z,196.88
2022-09-18T11:36:50.091Z,213.75
2022-09-18T11:37:50.076Z,225.00
2022-09-18T11:38:50.085Z,236.25
2022-09-18T11:39:50.166Z,247.50
2022-09-18T11:40:50.073Z,253.12
2022-09-18T11:41:50.061Z,264.38
2022-09-18T11:42:50.081Z,270.00
2022-09-18T11:43:50.049Z,286.88
2022-09-18T11:44:50.041Z,292.50
2022-09-18T11:45:50.045Z,298.12
2022-09-18T11:46:50.240Z,292.50
2022-09-18T11:47:50.013Z,275.62
2022-09-18T11:48:50.001Z,275.62
2022-09-18T11:49:49.997Z,258.75
2022-09-18T11:50:50.005Z,258.75
2022-09-18T11:51:49.993Z,247.50
2022-09-18T11:52:49.968Z,230.62
2022-09-18T11:53:49.969Z,213.75
2022-09-18T11:54:49.957Z,208.12
2022-09-18T11:55:50.047Z,202.50
2022-09-18T11:56:49.956Z,191.25
2022-09-18T11:57:49.949Z,185.62
2022-09-18T11:58:49.925Z,185.62
2022-09-18T11:59:49.924Z,174.38
2022-09-18T12:00:49.916Z,168.75
2022-09-18T12:01:49.968Z,163.12
2022-09-18T12:02:49.995Z,157.50
2022-09-18T12:03:49.896Z,157.50
2022-09-18T12:04:49.913Z,157.50
2022-09-18T12:05:50.037Z,157.50
2022-09-18T12:06:49.921Z,151.88
2022-09-18T12:07:48.516Z,157.50
2022-09-18T12:08:48.499Z,151.88
2022-09-18T12:09:48.485Z,151.88
2022-09-18T12:10:48.482Z,151.88
2022-09-18T12:11:48.557Z,146.25
2022-09-18T12:12:48.481Z,129.38
2022-09-18T12:13:48.450Z,118.12
2022-09-18T12:14:48.442Z,106.88
2022-09-18T12:15:48.443Z,101.25
2022-09-18T12:16:48.433Z,101.25
2022-09-18T12:17:48.434Z,112.50
2022-09-18T12:18:48.432Z,101.25
2022-09-18T12:19:48.410Z,95.62
2022-09-18T12:20:48.393Z,90.00
2022-09-18T12:21:48.388Z,84.38
2022-09-18T12:22:48.380Z,78.75
2022-09-18T12:23:48.387Z,73.12
2022-09-18T12:24:48.367Z,67.50
2022-09-18T12:25:48.365Z,61.88
2022-09-18T12:26:48.341Z,61.88
2022-09-18T12:27:48.431Z,61.88
2022-09-18T12:28:48.343Z,78.75
2022-09-18T12:29:48.316Z,84.38
2022-09-18T12:30:48.317Z,95.62
2022-09-18T12:31:48.324Z,101.25
2022-09-18T12:32:48.296Z,101.25
2022-09-18T12:33:48.342Z,101.25
2022-09-18T12:34:48.304Z,95.62
2022-09-18T12:35:48.262Z,95.62
2022-09-18T12:36:48.260Z,101.25
2022-09-18T12:37:48.260Z,101.25
2022-09-18T12:38:48.923Z,101.25
2022-09-18T12:39:48.923Z,101.25
2022-09-18T12:40:48.912Z,101.25
2022-09-18T12:41:48.895Z,106.88
2022-09-18T12:42:48.871Z,112.50
2022-09-18T12:43:49.977Z,112.50
2022-09-18T12:44:48.881Z,112.50
2022-09-18T12:45:48.969Z,112.50
2022-09-18T12:46:48.865Z,112.50
2022-09-18T12:47:48.839Z,118.12
2022-09-18T12:48:48.889Z,123.75
2022-09-18T12:49:48.846Z,123.75
2022-09-18T12:50:48.844Z,123.75
2022-09-18T12:51:48.868Z,112.50
2022-09-18T12:53:08.224Z,106.88
2022-09-18T12:53:50.794Z,106.88